createdAt,value
2022-12-29T00:01:09.027Z,101413.37
2022-12-29T00:03:36.976Z,101413.44
2022-12-29T00:06:04.637Z,101418.66
2022-12-29T00:08:41.567Z,101415.28
2022-12-29T00:11:12.290Z,101422.03
2022-12-29T00:13:58.666Z,101412.56
2022-12-29T00:16:26.918Z,101410.84
2022-12-29T00:18:54.631Z,101417.91
2022-12-29T00:21:42.179Z,101411.91
2022-12-29T00:24:35.337Z,101412.87
2022-12-29T00:27:21.430Z,101407.75
2022-12-29T00:30:08.489Z,101401.78
2022-12-29T00:32:54.779Z,101399.25
2022-12-29T00:35:33.268Z,101399.31
2022-12-29T00:38:25.049Z,101396.72
2022-12-29T00:41:11.743Z,101403.66
2022-12-29T00:43:57.856Z,101401.09
2022-12-29T00:46:25.658Z,101403.69
2022-12-29T00:49:11.595Z,101394.22
2022-12-29T00:51:39.443Z,101399.44
2022-12-29T00:54:06.998Z,101401.16
2022-12-29T00:56:34.786Z,101389.00
2022-12-29T00:59:04.678Z,101419.19
2022-12-29T01:01:32.524Z,101413.19
2022-12-29T01:04:04.150Z,101408.84
2022-12-29T01:06:33.324Z,101412.06
2022-12-29T01:09:19.491Z,101411.91
2022-12-29T01:11:47.276Z,101422.34
2022-12-29T01:14:15.099Z,101411.22
2022-12-29T01:16:42.688Z,101412.81
2022-12-29T01:19:11.076Z,101410.34
2022-12-29T01:21:38.666Z,101403.53
2022-12-29T01:24:06.550Z,101400.13
2022-12-29T01:26:35.205Z,101401.88
2022-12-29T01:29:02.807Z,101404.47
2022-12-29T01:31:30.513Z,101406.19
2022-12-29T01:33:58.381Z,101393.28
2022-12-29T01:36:26.197Z,101395.00
2022-12-29T01:38:53.959Z,101390.69
2022-12-29T01:41:22.840Z,101389.00
2022-12-29T01:44:32.752Z,101389.00
2022-12-29T01:47:00.634Z,101375.97
2022-12-29T01:49:28.784Z,101368.22
2022-12-29T01:52:03.867Z,101370.84
2022-12-29T01:54:38.752Z,101380.28
2022-12-29T01:57:09.836Z,101369.72
2022-12-29T01:59:51.365Z,101370.75
2022-12-29T02:02:19.022Z,101364.78
2022-12-29T02:04:46.852Z,101350.78
2022-12-29T02:07:20.319Z,101364.72
2022-12-29T02:09:50.092Z,101363.91
2022-12-29T02:12:19.687Z,101361.31
2022-12-29T02:14:48.692Z,101363.91
2022-12-29T02:17:22.170Z,101355.25
2022-12-29T02:20:12.952Z,101355.34
2022-12-29T02:22:43.495Z,101355.34
2022-12-29T02:25:50.071Z,101352.78
2022-12-29T02:28:23.500Z,101345.87
2022-12-29T02:31:10.219Z,101343.25
2022-12-29T02:34:09.718Z,101330.34
2022-12-29T02:36:56.455Z,101329.44
2022-12-29T02:39:26.792Z,101336.31
2022-12-29T02:42:32.293Z,101330.97
2022-12-29T02:45:14.750Z,101339.63
2022-12-29T02:48:17.195Z,101331.87
2022-12-29T02:51:08.649Z,101331.06
2022-12-29T02:53:55.899Z,101325.91
2022-12-29T02:56:23.656Z,101328.47
2022-12-29T02:58:51.558Z,101331.94
2022-12-29T03:01:37.928Z,101334.44
2022-12-29T03:04:23.204Z,101334.50
2022-12-29T03:07:09.979Z,101339.28
2022-12-29T03:09:47.388Z,101341.75
2022-12-29T03:12:52.243Z,101343.44
2022-12-29T03:15:46.194Z,101341.91
2022-12-29T03:18:15.784Z,101332.50
2022-12-29T03:21:01.741Z,101335.19
2022-12-29T03:23:30.219Z,101323.19
2022-12-29T03:26:00.278Z,101330.09
2022-12-29T03:28:37.313Z,101327.50
2022-12-29T03:31:06.157Z,101330.03
2022-12-29T03:33:35.100Z,101324.06
2022-12-29T03:36:07.170Z,101321.47
2022-12-29T03:39:03.501Z,101320.50
2022-12-29T03:41:33.201Z,101317.19
2022-12-29T03:44:01.608Z,101319.78
2022-12-29T03:46:29.128Z,101318.03
2022-12-29T03:48:56.805Z,101316.31
2022-12-29T03:51:24.851Z,101317.19
2022-12-29T03:53:52.768Z,101324.03
2022-12-29T03:56:20.639Z,101324.75
2022-12-29T03:58:48.836Z,101324.87
2022-12-29T04:01:16.744Z,101330.09
2022-12-29T04:03:46.311Z,101315.41
2022-12-29T04:06:13.927Z,101335.25
2022-12-29T04:08:42.225Z,101329.22
2022-12-29T04:11:10.074Z,101327.50
2022-12-29T04:13:38.574Z,101326.66
2022-12-29T04:16:06.265Z,101335.25
2022-12-29T04:18:34.201Z,101339.50
2022-12-29T04:21:03.550Z,101329.19
2022-12-29T04:23:33.620Z,101320.50
2022-12-29T04:26:01.729Z,101321.34
2022-12-29T04:28:29.868Z,101323.16
2022-12-29T04:30:58.573Z,101337.78
2022-12-29T04:33:26.811Z,101330.91
2022-12-29T04:35:55.063Z,101334.22
2022-12-29T04:38:24.636Z,101341.16
2022-12-29T04:40:52.714Z,101337.31
2022-12-29T04:43:22.725Z,101339.16
2022-12-29T04:45:52.228Z,101340.09
2022-12-29T04:48:20.723Z,101332.34
2022-12-29T04:50:49.600Z,101327.25
2022-12-29T04:53:18.353Z,101317.72
2022-12-29T04:55:51.035Z,101329.88
2022-12-29T04:58:22.840Z,101322.09
2022-12-29T05:00:52.446Z,101342.66
2022-12-29T05:03:22.090Z,101344.44
2022-12-29T05:05:49.997Z,101336.56
2022-12-29T05:08:20.859Z,101323.62
2022-12-29T05:10:52.189Z,101320.12
2022-12-29T05:13:20.879Z,101318.41
2022-12-29T05:15:53.726Z,101321.84
2022-12-29T05:18:22.685Z,101323.47
2022-12-29T05:20:51.268Z,101325.22
2022-12-29T05:23:19.248Z,101331.13
2022-12-29T05:25:49.833Z,101336.41
2022-12-29T05:28:17.794Z,101316.56
2022-12-29T05:30:49.912Z,101322.66
2022-12-29T05:33:19.233Z,101319.16
2022-12-29T05:35:48.338Z,101320.06
2022-12-29T05:38:16.173Z,101320.94
2022-12-29T05:40:46.491Z,101317.56
2022-12-29T05:43:14.730Z,101316.69
2022-12-29T05:45:42.541Z,101309.81
2022-12-29T05:48:12.063Z,101311.53
2022-12-29T05:50:39.884Z,101312.41
2022-12-29T05:53:09.421Z,101322.75
2022-12-29T05:55:39.189Z,101312.41
2022-12-29T05:58:08.653Z,101311.56
2022-12-29T06:00:36.271Z,101314.16
2022-12-29T06:03:05.195Z,101315.03
2022-12-29T06:05:32.825Z,101314.16
2022-12-29T06:08:00.634Z,101309.00
2022-12-29T06:10:28.769Z,101321.75
2022-12-29T06:12:56.637Z,101326.75
2022-12-29T06:15:24.598Z,101320.69
2022-12-29T06:17:53.299Z,101324.87
2022-12-29T06:20:20.780Z,101333.47
2022-12-29T06:22:48.700Z,101336.88
2022-12-29T06:25:17.229Z,101331.69
2022-12-29T06:27:45.164Z,101334.38
2022-12-29T06:30:13.121Z,101325.91
2022-12-29T06:32:41.787Z,101325.13
2022-12-29T06:35:10.261Z,101321.72
2022-12-29T06:37:38.153Z,101325.22
2022-12-29T06:40:06.743Z,101331.25
2022-12-29T06:42:35.919Z,101327.88
2022-12-29T06:45:05.425Z,101341.56
2022-12-29T06:47:33.289Z,101330.44
2022-12-29T06:50:01.755Z,101332.16
2022-12-29T06:52:29.639Z,101342.50
2022-12-29T06:54:57.516Z,101343.44
2022-12-29T06:57:25.267Z,101344.25
2022-12-29T06:59:52.982Z,101345.00
2022-12-29T07:02:21.103Z,101333.16
2022-12-29T07:04:48.664Z,101338.34
2022-12-29T07:07:17.510Z,101334.13
2022-12-29T07:09:46.728Z,101336.75
2022-12-29T07:12:14.246Z,101332.50
2022-12-29T07:14:43.524Z,101326.47
2022-12-29T07:17:11.687Z,101338.66
2022-12-29T07:19:39.313Z,101332.66
2022-12-29T07:22:07.067Z,101326.59
2022-12-29T07:24:34.931Z,101333.59
2022-12-29T07:27:02.425Z,101332.72
2022-12-29T07:29:29.962Z,101327.44
2022-12-29T07:31:58.119Z,101341.28
2022-12-29T07:34:25.693Z,101348.22
2022-12-29T07:36:53.339Z,101340.47
2022-12-29T07:39:21.251Z,101331.09
2022-12-29T07:41:48.871Z,101332.06
2022-12-29T07:44:17.734Z,101326.94
2022-12-29T07:46:56.196Z,101334.81
2022-12-29T07:49:25.472Z,101321.06
2022-12-29T07:51:53.472Z,101328.91
2022-12-29T07:54:21.307Z,101332.44
2022-12-29T07:56:48.890Z,101327.38
2022-12-29T07:59:16.829Z,101319.66
2022-12-29T08:01:44.727Z,101318.88
2022-12-29T08:04:12.698Z,101310.34
2022-12-29T08:06:40.312Z,101310.41
2022-12-29T08:09:15.147Z,101319.09
2022-12-29T08:11:45.947Z,101321.72
2022-12-29T08:14:13.520Z,101326.16
2022-12-29T08:16:41.394Z,101333.97
2022-12-29T08:19:11.761Z,101322.81
2022-12-29T08:21:40.461Z,101328.06
2022-12-29T08:24:09.547Z,101322.06
2022-12-29T08:26:37.430Z,101317.75
2022-12-29T08:29:04.893Z,101317.88
2022-12-29T08:31:32.666Z,101316.16
2022-12-29T08:34:01.039Z,101300.63
2022-12-29T08:36:28.579Z,101295.50
2022-12-29T08:38:56.074Z,101289.47
2022-12-29T08:41:24.023Z,101302.47
2022-12-29T08:43:51.612Z,101291.31
2022-12-29T08:46:19.216Z,101292.19
2022-12-29T08:48:47.016Z,101290.53
2022-12-29T08:51:14.941Z,101297.44
2022-12-29T08:53:42.483Z,101299.22
2022-12-29T08:56:10.976Z,101302.69
2022-12-29T08:58:39.549Z,101301.00
2022-12-29T09:01:08.103Z,101302.75
2022-12-29T09:06:23.805Z,101288.94
2022-12-29T09:08:51.644Z,101299.31
2022-12-29T09:11:22.892Z,101301.06
2022-12-29T09:13:50.911Z,101299.34
2022-12-29T09:16:19.440Z,101291.56
2022-12-29T09:18:47.141Z,101283.78
2022-12-29T09:21:15.081Z,101292.44
2022-12-29T09:23:42.632Z,101297.59
2022-12-29T09:26:10.692Z,101272.53
2022-12-29T09:28:39.031Z,101282.91
2022-12-29T09:31:07.147Z,101288.97
2022-12-29T09:33:35.314Z,101281.19
2022-12-29T09:36:04.017Z,101288.09
2022-12-29T09:38:31.784Z,101291.56
2022-12-29T09:41:08.267Z,101285.50
2022-12-29T09:44:04.225Z,101282.91
2022-12-29T09:46:39.600Z,101285.50
2022-12-29T09:49:14.813Z,101276.84
2022-12-29T09:51:44.890Z,101279.44
2022-12-29T09:54:37.780Z,101286.31
2022-12-29T09:57:09.852Z,101280.25
2022-12-29T09:59:41.830Z,101290.63
2022-12-29T10:02:28.800Z,101275.00
2022-12-29T10:04:56.712Z,101262.00
2022-12-29T10:08:02.841Z,101265.41
2022-12-29T10:10:39.732Z,101258.34
2022-12-29T10:13:28.797Z,101244.41
2022-12-29T10:16:18.014Z,101249.53
2022-12-29T10:19:07.952Z,101247.91
2022-12-29T10:22:00.991Z,101247.78
2022-12-29T10:24:29.098Z,101248.34
2022-12-29T10:26:58.285Z,101245.91
2022-12-29T10:29:32.330Z,101241.50
2022-12-29T10:32:02.177Z,101239.69
2022-12-29T10:34:35.887Z,101227.38
2022-12-29T10:37:16.137Z,101234.09
2022-12-29T10:39:49.456Z,101233.84
2022-12-29T10:42:37.882Z,101227.63
2022-12-29T10:45:06.578Z,101233.44
2022-12-29T10:47:37.269Z,101219.63
2022-12-29T10:50:05.853Z,101219.59
2022-12-29T10:52:34.074Z,101213.22
2022-12-29T10:55:11.199Z,101211.44
2022-12-29T10:57:42.154Z,101207.72
2022-12-29T11:00:23.950Z,101202.41
2022-12-29T11:03:05.271Z,101201.44
2022-12-29T11:05:42.111Z,101196.09
2022-12-29T11:08:18.668Z,101195.28
2022-12-29T11:10:47.523Z,101190.81
2022-12-29T11:13:16.623Z,101183.88
2022-12-29T11:15:48.922Z,101186.41
2022-12-29T11:18:23.006Z,101193.94
2022-12-29T11:20:55.260Z,101183.47
2022-12-29T11:23:24.806Z,101171.28
2022-12-29T11:26:06.770Z,101172.13
2022-12-29T11:28:35.132Z,101164.16
2022-12-29T11:31:04.957Z,101148.59
2022-12-29T11:33:33.581Z,101152.69
2022-12-29T11:36:08.198Z,101155.34
2022-12-29T11:38:42.105Z,101165.75
2022-12-29T11:41:13.419Z,101151.03
2022-12-29T11:43:44.888Z,101159.59
2022-12-29T11:46:18.896Z,101175.87
2022-12-29T11:48:47.471Z,101166.19
2022-12-29T11:51:25.319Z,101159.37
2022-12-29T11:53:57.615Z,101152.37
2022-12-29T11:56:41.635Z,101156.66
2022-12-29T11:59:27.899Z,101147.88
2022-12-29T12:01:56.082Z,101147.78
2022-12-29T12:04:27.631Z,101143.34
2022-12-29T12:07:03.543Z,101144.19
2022-12-29T12:10:07.426Z,101132.81
2022-12-29T12:12:40.751Z,101120.53
2022-12-29T12:15:19.583Z,101122.84
2022-12-29T12:18:03.421Z,101123.00
2022-12-29T12:20:42.756Z,101116.09
2022-12-29T12:23:22.327Z,101120.09
2022-12-29T12:26:00.858Z,101111.50
2022-12-29T12:28:40.755Z,101119.22
2022-12-29T12:31:39.858Z,101116.56
2022-12-29T12:34:14.701Z,101106.91
2022-12-29T12:36:53.131Z,101113.03
2022-12-29T12:39:30.874Z,101110.31
2022-12-29T12:42:19.369Z,101101.63
2022-12-29T12:44:54.772Z,101097.19
2022-12-29T12:47:37.539Z,101085.72
2022-12-29T12:50:07.916Z,101089.94
2022-12-29T12:53:10.132Z,101079.47
2022-12-29T12:55:56.615Z,101081.06
2022-12-29T12:59:02.991Z,101086.12
2022-12-29T13:02:03.108Z,101081.78
2022-12-29T13:04:54.454Z,101084.31
2022-12-29T13:07:22.462Z,101079.75
2022-12-29T13:10:21.663Z,101089.25
2022-12-29T13:13:02.237Z,101083.16
2022-12-29T13:15:51.676Z,101081.44
2022-12-29T13:18:27.585Z,101081.44
2022-12-29T13:20:58.303Z,101092.62
2022-12-29T13:23:37.111Z,101091.84
2022-12-29T13:26:15.282Z,101088.25
2022-12-29T13:29:05.721Z,101090.03
2022-12-29T13:31:54.824Z,101089.94
2022-12-29T13:34:29.611Z,101092.34
2022-12-29T13:37:01.153Z,101092.41
2022-12-29T13:39:52.022Z,101089.78
2022-12-29T13:42:20.771Z,101085.47
2022-12-29T13:44:55.040Z,101079.31
2022-12-29T13:48:07.592Z,101081.75
2022-12-29T13:50:38.214Z,101085.38
2022-12-29T13:53:36.945Z,101086.16
2022-12-29T13:56:34.746Z,101085.34
2022-12-29T13:59:21.239Z,101092.16
2022-12-29T14:02:01.181Z,101090.41
2022-12-29T14:04:33.718Z,101088.75
2022-12-29T14:07:06.560Z,101089.53
2022-12-29T14:09:55.244Z,101089.53
2022-12-29T14:12:34.619Z,101086.88
2022-12-29T14:15:11.721Z,101072.88
2022-12-29T14:17:44.419Z,101076.41
2022-12-29T14:20:21.965Z,101076.16
2022-12-29T14:23:03.042Z,101080.59
2022-12-29T14:26:21.976Z,101077.13
2022-12-29T14:28:49.870Z,101077.87
2022-12-29T14:31:17.647Z,101078.72
2022-12-29T14:34:08.500Z,101082.13
2022-12-29T14:36:38.654Z,101083.03
2022-12-29T14:39:45.277Z,101075.31
2022-12-29T14:42:15.435Z,101090.03
2022-12-29T14:45:28.281Z,101085.63
2022-12-29T14:47:56.927Z,101080.50
2022-12-29T14:50:26.335Z,101083.22
2022-12-29T14:53:04.188Z,101079.75
2022-12-29T14:55:51.021Z,101078.78
2022-12-29T14:58:22.153Z,101082.25
2022-12-29T15:00:50.325Z,101082.31
2022-12-29T15:03:19.541Z,101071.88
2022-12-29T15:05:50.109Z,101076.09
2022-12-29T15:08:22.794Z,101067.44
2022-12-29T15:10:54.959Z,101072.62
2022-12-29T15:13:26.652Z,101070.94
2022-12-29T15:15:54.231Z,101065.69
2022-12-29T15:18:27.019Z,101075.31
2022-12-29T15:20:58.124Z,101070.06
2022-12-29T15:23:26.568Z,101067.50
2022-12-29T15:26:00.166Z,101069.22
2022-12-29T15:28:31.629Z,101068.16
2022-12-29T15:31:10.308Z,101069.75
2022-12-29T15:33:40.954Z,101065.66
2022-12-29T15:36:13.976Z,101060.22
2022-12-29T15:38:41.855Z,101066.28
2022-12-29T15:41:58.348Z,101067.84
2022-12-29T15:44:30.794Z,101069.47
2022-12-29T15:46:58.709Z,101065.03
2022-12-29T15:49:32.042Z,101055.41
2022-12-29T15:52:00.234Z,101064.91
2022-12-29T15:54:32.842Z,101069.41
2022-12-29T15:57:00.438Z,101066.88
2022-12-29T15:59:28.825Z,101072.25
2022-12-29T16:01:58.111Z,101060.19
2022-12-29T16:04:31.489Z,101069.62
2022-12-29T16:06:59.704Z,101061.63
2022-12-29T16:09:44.555Z,101066.81
2022-12-29T16:12:21.131Z,101070.59
2022-12-29T16:14:52.901Z,101072.41
2022-12-29T16:17:27.892Z,101063.72
2022-12-29T16:19:59.291Z,101066.47
2022-12-29T16:22:34.051Z,101063.72
2022-12-29T16:25:07.980Z,101069.16
2022-12-29T16:27:41.762Z,101075.31
2022-12-29T16:30:26.526Z,101075.47
2022-12-29T16:33:01.472Z,101072.62
2022-12-29T16:35:36.154Z,101076.22
2022-12-29T16:38:18.684Z,101072.69
2022-12-29T16:41:05.550Z,101073.66
2022-12-29T16:43:42.771Z,101080.72
2022-12-29T16:46:25.060Z,101076.47
2022-12-29T16:48:55.054Z,101074.81
2022-12-29T16:51:31.014Z,101075.78
2022-12-29T16:53:59.617Z,101081.88
2022-12-29T16:56:31.117Z,101090.53
2022-12-29T16:59:08.245Z,101081.94
2022-12-29T17:01:38.542Z,101081.81
2022-12-29T17:04:08.003Z,101080.00
2022-12-29T17:06:35.849Z,101077.50
2022-12-29T17:09:03.724Z,101080.13
2022-12-29T17:11:59.379Z,101081.19
2022-12-29T17:14:41.870Z,101077.81
2022-12-29T17:17:16.785Z,101077.06
2022-12-29T17:19:56.245Z,101080.66
2022-12-29T17:22:26.689Z,101076.38
2022-12-29T17:24:56.377Z,101078.16
2022-12-29T17:27:29.960Z,101082.59
2022-12-29T17:30:01.058Z,101084.28
2022-12-29T17:32:29.409Z,101082.53
2022-12-29T17:34:56.951Z,101077.41
2022-12-29T17:37:24.891Z,101081.88
2022-12-29T17:39:52.671Z,101080.06
2022-12-29T17:42:20.439Z,101080.94
2022-12-29T17:44:48.398Z,101080.22
2022-12-29T17:47:16.171Z,101088.19
2022-12-29T17:49:47.154Z,101084.87
2022-12-29T17:52:16.385Z,101091.91
2022-12-29T17:54:52.022Z,101094.66
2022-12-29T17:57:21.530Z,101084.28
2022-12-29T17:59:49.418Z,101091.37
2022-12-29T18:02:26.924Z,101091.56
2022-12-29T18:04:55.792Z,101089.91
2022-12-29T18:07:23.431Z,101090.03
2022-12-29T18:09:51.040Z,101096.19
2022-12-29T18:12:38.844Z,101099.69
2022-12-29T18:15:07.843Z,101103.22
2022-12-29T18:17:35.835Z,101091.06
2022-12-29T18:20:03.529Z,101092.88
2022-12-29T18:22:32.240Z,101096.38
2022-12-29T18:25:02.065Z,101102.47
2022-12-29T18:27:29.731Z,101085.03
2022-12-29T18:29:57.238Z,101098.09
2022-12-29T18:32:25.267Z,101097.25
2022-12-29T18:34:52.836Z,101092.97
2022-12-29T18:37:24.765Z,101090.41
2022-12-29T18:39:52.551Z,101080.06
2022-12-29T18:42:20.144Z,101082.78
2022-12-29T18:44:47.881Z,101082.00
2022-12-29T18:47:15.778Z,101086.44
2022-12-29T18:49:43.329Z,101076.97
2022-12-29T18:52:13.635Z,101074.47
2022-12-29T18:54:41.522Z,101080.53
2022-12-29T18:57:09.203Z,101085.81
2022-12-29T18:59:36.952Z,101084.09
2022-12-29T19:02:05.113Z,101080.72
2022-12-29T19:04:32.906Z,101085.94
2022-12-29T19:07:00.444Z,101081.69
2022-12-29T19:09:28.420Z,101083.44
2022-12-29T19:11:56.125Z,101086.94
2022-12-29T19:14:24.026Z,101084.37
2022-12-29T19:16:52.469Z,101085.28
2022-12-29T19:19:20.125Z,101089.62
2022-12-29T19:21:47.914Z,101088.69
2022-12-29T19:24:15.727Z,101089.50
2022-12-29T19:26:43.424Z,101085.13
2022-12-29T19:29:18.070Z,101090.31
2022-12-29T19:31:46.156Z,101084.25
2022-12-29T19:34:15.265Z,101084.16
2022-12-29T19:36:44.138Z,101080.63
2022-12-29T19:39:12.567Z,101085.84
2022-12-29T19:41:40.096Z,101076.41
2022-12-29T19:44:08.396Z,101077.31
2022-12-29T19:46:36.244Z,101087.66
2022-12-29T19:49:03.876Z,101079.84
2022-12-29T19:51:31.669Z,101072.94
2022-12-29T19:53:59.587Z,101069.47
2022-12-29T19:56:27.116Z,101073.72
2022-12-29T19:58:54.851Z,101076.31
2022-12-29T20:01:23.435Z,101076.28
2022-12-29T20:03:51.862Z,101069.34
2022-12-29T20:06:19.735Z,101074.56
2022-12-29T20:08:47.527Z,101071.94
2022-12-29T20:11:17.624Z,101077.97
2022-12-29T20:13:45.420Z,101075.31
2022-12-29T20:16:15.781Z,101073.56
2022-12-29T20:18:44.106Z,101073.50
2022-12-29T20:21:17.980Z,101072.41
2022-12-29T20:23:46.967Z,101076.69
2022-12-29T20:26:18.602Z,101070.50
2022-12-29T20:28:47.201Z,101069.72
2022-12-29T20:31:21.376Z,101066.09
2022-12-29T20:33:49.575Z,101064.34
2022-12-29T20:36:20.764Z,101059.91
2022-12-29T20:38:49.466Z,101053.78
2022-12-29T20:41:17.825Z,101060.59
2022-12-29T20:43:45.518Z,101068.88
2022-12-29T20:46:20.288Z,101059.50
2022-12-29T20:48:49.449Z,101065.62
2022-12-29T20:51:17.933Z,101051.81
2022-12-29T20:53:45.719Z,101060.19
2022-12-29T20:56:16.260Z,101057.53
2022-12-29T20:59:17.204Z,101053.87
2022-12-29T21:01:32.711Z,101050.31
2022-12-29T21:04:00.356Z,101055.72
2022-12-29T21:06:28.070Z,101065.09
2022-12-29T21:08:55.965Z,101056.41
2022-12-29T21:11:23.572Z,101054.63
2022-12-29T21:13:51.168Z,101055.69
2022-12-29T21:16:21.159Z,101053.87
2022-12-29T21:18:49.230Z,101052.22
2022-12-29T21:21:22.524Z,101059.03
2022-12-29T21:23:51.251Z,101053.00
2022-12-29T21:26:22.595Z,101056.28
2022-12-29T21:28:51.353Z,101054.53
2022-12-29T21:31:29.140Z,101052.91
2022-12-29T21:33:57.394Z,101051.97
2022-12-29T21:36:25.248Z,101057.94
2022-12-29T21:38:53.362Z,101052.69
2022-12-29T21:41:21.893Z,101048.38
2022-12-29T21:44:08.208Z,101049.22
2022-12-29T21:46:38.326Z,101051.72
2022-12-29T21:49:06.824Z,101051.84
2022-12-29T21:51:53.346Z,101053.50
2022-12-29T21:54:45.222Z,101054.37
2022-12-29T21:57:34.227Z,101059.63
2022-12-29T22:00:20.917Z,101056.12
2022-12-29T22:03:07.654Z,101049.19
2022-12-29T22:05:54.373Z,101045.53
2022-12-29T22:08:40.645Z,101045.59
2022-12-29T22:11:27.430Z,101038.50
2022-12-29T22:13:56.405Z,101038.72
2022-12-29T22:16:25.008Z,101040.41
2022-12-29T22:18:52.881Z,101035.94
2022-12-29T22:21:20.783Z,101042.94
2022-12-29T22:23:54.028Z,101034.91
2022-12-29T22:26:21.879Z,101049.09
2022-12-29T22:28:52.007Z,101039.41
2022-12-29T22:31:30.235Z,101037.72
2022-12-29T22:34:00.686Z,101043.72
2022-12-29T22:36:28.866Z,101029.25
2022-12-29T22:38:56.777Z,101040.47
2022-12-29T22:41:24.748Z,101042.28
2022-12-29T22:43:52.477Z,101038.56
2022-12-29T22:46:20.170Z,101036.00
2022-12-29T22:48:47.974Z,101035.94
2022-12-29T22:51:15.511Z,101031.56
2022-12-29T22:53:43.115Z,101032.22
2022-12-29T22:56:13.162Z,101031.25
2022-12-29T22:58:41.794Z,101024.50
2022-12-29T23:01:11.019Z,101018.41
2022-12-29T23:03:39.152Z,101020.84
2022-12-29T23:06:07.901Z,101014.13
2022-12-29T23:08:37.606Z,101015.91
2022-12-29T23:11:07.903Z,101006.25
2022-12-29T23:13:36.002Z,101014.97
2022-12-29T23:16:03.754Z,101013.19
2022-12-29T23:18:31.715Z,101010.63
2022-12-29T23:20:59.251Z,101021.91
2022-12-29T23:23:49.170Z,101019.28
2022-12-29T23:26:18.726Z,101011.38
2022-12-29T23:28:46.242Z,101007.91
2022-12-29T23:31:14.650Z,101020.00
2022-12-29T23:33:42.574Z,101019.94
2022-12-29T23:36:10.315Z,101019.09
2022-12-29T23:38:37.882Z,101017.47
2022-12-29T23:41:05.902Z,101019.28
2022-12-29T23:43:33.903Z,101028.03
2022-12-29T23:46:09.252Z,101028.56
2022-12-29T23:48:37.775Z,101004.75
2022-12-29T23:51:05.922Z,101008.88
2022-12-29T23:53:35.117Z,101000.47
2022-12-29T23:56:03.167Z,101009.66
2022-12-29T23:58:31.593Z,101006.47
